Terminal Aerodrome Forecast
Issued by NWS Paducah, KY

Home | Current Version | Previous Version | Text Only | Print | Product List | Glossary On
Versions: 1 2 3 4 5 6 7 8 9 10 11 12 13 14 15 16 17 18
436
FTUS43 KPAH 210716 AAA
TAFEVV
TAF AMD
KEVV 210716Z 2107/2206 00000KT 4SM BR SKC
      TEMPO 2110/2112 2SM BR
     FM211400 20004KT P6SM SCT035 BKN250=

USA.gov is the U.S. government's official web portal to all federal, state and local government web resources and services.